Sheridan, CA (95486)

7:46 AM PST on January 30, 2015 (GMT -0800)
APRSWXNET Monte Rio CA US | Change Station
CLOSE
Current Station
Personal Weather Station
Location: Monte Rio, CA
Elevation: 301 ft
Nearby Weather Stations

Elev 301 ft 38.47 °N, 123.01 °W | Updated 44 minutes ago

Overcast
Overcast
40 °F
Feels Like 40 °F
N
0
Wind Variable Wind from North
Gusts 0.0 mph

Today
High -- | Low -- °F
--% Chance of Precip.
Yesterday
High -- | Low -- °F
Precip. -- in
7:19 AM 5:32 PM
Waxing Gibbous, 83% visible
Pressure 30.01 in
Visibility 0.5 miles
Clouds Mostly Cloudy 100 ft
Windchill 40 °F
Dew Point 40 °F
Humidity 99%
Rainfall 0.00 in
Snow Depth Not available.
UV 0 out of 12
Pollen 5.30 out of 12
Air Quality Not available.
Flu Activity Not available.
SPECI KSTS 301518Z 00000KT 1/2SM FG BKN001 03/02 A3001 RMK AO2

More Conditions Fewer Conditions

Pressure 30.01 in
Visibility 0.5 miles
Clouds Mostly Cloudy 100 ft
Windchill 40 °F
Dew Point 40 °F
Humidity 99%
Rainfall 0.00 in
Snow Depth Not available.
UV 0 out of 12
Pollen 5.30 out of 12
Air Quality Not available.
Flu Activity Not available.
SPECI KSTS 301518Z 00000KT 1/2SM FG BKN001 03/02 A3001 RMK AO2

More Conditions Fewer Conditions

10-Day Weather Forecast

Almanac

Astronomy

Jan. 30, 2015 Rise Set
Actual Time
Civil Twilight
Nautical Twilight
Astronomical Twilight
Moon
Length of Visible Light
Length of Day
Tomorrow will be .
, % of the Moon is Illuminated

Today's Extremes

State Highs State Lows

Community

WunderPhotos

Upload Photos

1,791,791 photos uploaded!

WunderBlogs® & News

Nearby

Air Quality

  Air Quality AQ Index Pollutant
Not available.

Snow Depth

Station Depth Elevation

Earthquake Activity

City Distance Mag. Time & Date
Minimum magnitude displayed is 2.5.

Coastal Water Temperatures

Place Temperature

Nearby Weather Stations